sensor_id;sensor_type;location;lat;lon;timestamp;pressure;altitude;pressure_sealevel;temperature
7389;BMP180;3735;50.136;11.062;2022-09-09T00:02:14;97809.00;;;11.50
7389;BMP180;3735;50.136;11.062;2022-09-09T00:04:59;97807.00;;;11.50
7389;BMP180;3735;50.136;11.062;2022-09-09T00:07:58;97805.00;;;11.50
7389;BMP180;3735;50.136;11.062;2022-09-09T00:10:38;97806.00;;;11.50
7389;BMP180;3735;50.136;11.062;2022-09-09T00:16:19;97793.00;;;11.60
7389;BMP180;3735;50.136;11.062;2022-09-09T00:19:23;97797.00;;;11.50
7389;BMP180;3735;50.136;11.062;2022-09-09T00:22:16;97797.00;;;11.60
7389;BMP180;3735;50.136;11.062;2022-09-09T00:24:51;97790.00;;;11.60
7389;BMP180;3735;50.136;11.062;2022-09-09T00:27:48;97790.00;;;11.60
7389;BMP180;3735;50.136;11.062;2022-09-09T00:30:21;97789.00;;;11.50
7389;BMP180;3735;50.136;11.062;2022-09-09T00:32:58;97788.00;;;11.50
7389;BMP180;3735;50.136;11.062;2022-09-09T00:35:32;97788.00;;;11.50
7389;BMP180;3735;50.136;11.062;2022-09-09T00:38:37;97783.00;;;11.50
7389;BMP180;3735;50.136;11.062;2022-09-09T00:41:34;97786.00;;;11.50
7389;BMP180;3735;50.136;11.062;2022-09-09T00:44:35;97793.00;;;11.60
7389;BMP180;3735;50.136;11.062;2022-09-09T00:57:38;97792.00;;;12.10
7389;BMP180;3735;50.136;11.062;2022-09-09T01:14:49;97787.00;;;12.30
7389;BMP180;3735;50.136;11.062;2022-09-09T01:17:31;97786.00;;;12.30
7389;BMP180;3735;50.136;11.062;2022-09-09T01:20:14;97793.00;;;12.30
7389;BMP180;3735;50.136;11.062;2022-09-09T01:23:17;97785.00;;;12.30
7389;BMP180;3735;50.136;11.062;2022-09-09T01:26:17;97782.00;;;12.20
7389;BMP180;3735;50.136;11.062;2022-09-09T01:28:49;97783.00;;;12.10
7389;BMP180;3735;50.136;11.062;2022-09-09T01:31:26;97782.00;;;12.00
7389;BMP180;3735;50.136;11.062;2022-09-09T01:33:53;97777.00;;;12.00
7389;BMP180;3735;50.136;11.062;2022-09-09T01:36:58;97780.00;;;11.90
7389;BMP180;3735;50.136;11.062;2022-09-09T01:39:26;97781.00;;;11.80
7389;BMP180;3735;50.136;11.062;2022-09-09T01:41:54;97785.00;;;11.80
7389;BMP180;3735;50.136;11.062;2022-09-09T01:44:21;97777.00;;;11.70
7389;BMP180;3735;50.136;11.062;2022-09-09T01:46:47;97777.00;;;11.70
7389;BMP180;3735;50.136;11.062;2022-09-09T01:49:13;97772.00;;;11.70
7389;BMP180;3735;50.136;11.062;2022-09-09T01:51:41;97773.00;;;11.70
7389;BMP180;3735;50.136;11.062;2022-09-09T01:54:08;97775.00;;;11.70
7389;BMP180;3735;50.136;11.062;2022-09-09T02:00:04;97766.00;;;11.80
7389;BMP180;3735;50.136;11.062;2022-09-09T02:05:39;97786.00;;;11.90
7389;BMP180;3735;50.136;11.062;2022-09-09T02:08:13;97775.00;;;11.90
7389;BMP180;3735;50.136;11.062;2022-09-09T02:13:35;97777.00;;;12.10
7389;BMP180;3735;50.136;11.062;2022-09-09T02:16:24;97778.00;;;12.10
7389;BMP180;3735;50.136;11.062;2022-09-09T02:19:00;97774.00;;;12.10
7389;BMP180;3735;50.136;11.062;2022-09-09T02:21:31;97759.00;;;12.20
7389;BMP180;3735;50.136;11.062;2022-09-09T02:24:02;97766.00;;;12.20
7389;BMP180;3735;50.136;11.062;2022-09-09T02:26:35;97776.00;;;12.20
7389;BMP180;3735;50.136;11.062;2022-09-09T02:29:08;97775.00;;;12.20
7389;BMP180;3735;50.136;11.062;2022-09-09T02:31:36;97772.00;;;12.30
7389;BMP180;3735;50.136;11.062;2022-09-09T02:34:07;97774.00;;;12.30
7389;BMP180;3735;50.136;11.062;2022-09-09T02:36:38;97779.00;;;12.30
7389;BMP180;3735;50.136;11.062;2022-09-09T02:39:10;97776.00;;;12.30
7389;BMP180;3735;50.136;11.062;2022-09-09T02:41:40;97780.00;;;12.30
7389;BMP180;3735;50.136;11.062;2022-09-09T02:44:18;97779.00;;;12.20
7389;BMP180;3735;50.136;11.062;2022-09-09T02:50:25;97766.00;;;12.20
7389;BMP180;3735;50.136;11.062;2022-09-09T02:53:18;97771.00;;;12.20
7389;BMP180;3735;50.136;11.062;2022-09-09T02:56:18;97765.00;;;12.30
7389;BMP180;3735;50.136;11.062;2022-09-09T02:58:45;97758.00;;;12.30
7389;BMP180;3735;50.136;11.062;2022-09-09T03:01:12;97759.00;;;12.30
7389;BMP180;3735;50.136;11.062;2022-09-09T03:03:38;97750.00;;;12.30
7389;BMP180;3735;50.136;11.062;2022-09-09T03:06:05;97765.00;;;12.30
7389;BMP180;3735;50.136;11.062;2022-09-09T03:08:31;97758.00;;;12.30
7389;BMP180;3735;50.136;11.062;2022-09-09T03:10:59;97778.00;;;12.40
7389;BMP180;3735;50.136;11.062;2022-09-09T03:13:27;97772.00;;;12.30
7389;BMP180;3735;50.136;11.062;2022-09-09T03:15:52;97768.00;;;12.40
7389;BMP180;3735;50.136;11.062;2022-09-09T03:18:18;97771.00;;;12.50
7389;BMP180;3735;50.136;11.062;2022-09-09T03:20:46;97768.00;;;12.60
7389;BMP180;3735;50.136;11.062;2022-09-09T03:23:14;97766.00;;;12.70
7389;BMP180;3735;50.136;11.062;2022-09-09T03:25:47;97746.00;;;12.70
7389;BMP180;3735;50.136;11.062;2022-09-09T03:28:14;97762.00;;;12.70
7389;BMP180;3735;50.136;11.062;2022-09-09T03:30:41;97756.00;;;12.80
7389;BMP180;3735;50.136;11.062;2022-09-09T03:33:06;97753.00;;;12.80
7389;BMP180;3735;50.136;11.062;2022-09-09T03:35:32;97761.00;;;12.80
7389;BMP180;3735;50.136;11.062;2022-09-09T03:37:58;97757.00;;;12.80
7389;BMP180;3735;50.136;11.062;2022-09-09T03:40:23;97753.00;;;12.80
7389;BMP180;3735;50.136;11.062;2022-09-09T03:42:49;97760.00;;;12.80
7389;BMP180;3735;50.136;11.062;2022-09-09T03:45:15;97759.00;;;12.90
7389;BMP180;3735;50.136;11.062;2022-09-09T03:47:42;97753.00;;;12.90
7389;BMP180;3735;50.136;11.062;2022-09-09T03:50:09;97760.00;;;12.90
7389;BMP180;3735;50.136;11.062;2022-09-09T03:52:41;97754.00;;;12.90
7389;BMP180;3735;50.136;11.062;2022-09-09T03:55:08;97752.00;;;12.90
7389;BMP180;3735;50.136;11.062;2022-09-09T03:57:34;97752.00;;;12.90
7389;BMP180;3735;50.136;11.062;2022-09-09T04:00:06;97752.00;;;12.80
7389;BMP180;3735;50.136;11.062;2022-09-09T04:02:32;97746.00;;;12.80
7389;BMP180;3735;50.136;11.062;2022-09-09T04:04:58;97748.00;;;12.80
7389;BMP180;3735;50.136;11.062;2022-09-09T04:07:25;97743.00;;;12.80
7389;BMP180;3735;50.136;11.062;2022-09-09T04:09:52;97736.00;;;12.80
7389;BMP180;3735;50.136;11.062;2022-09-09T04:12:20;97744.00;;;12.80
7389;BMP180;3735;50.136;11.062;2022-09-09T04:14:46;97748.00;;;12.80
7389;BMP180;3735;50.136;11.062;2022-09-09T04:17:12;97732.00;;;12.80
7389;BMP180;3735;50.136;11.062;2022-09-09T04:19:38;97736.00;;;12.80
7389;BMP180;3735;50.136;11.062;2022-09-09T04:22:04;97726.00;;;12.80
7389;BMP180;3735;50.136;11.062;2022-09-09T04:24:29;97728.00;;;12.80
7389;BMP180;3735;50.136;11.062;2022-09-09T04:26:55;97735.00;;;12.90
7389;BMP180;3735;50.136;11.062;2022-09-09T04:29:21;97737.00;;;12.90
7389;BMP180;3735;50.136;11.062;2022-09-09T04:31:47;97734.00;;;12.90
7389;BMP180;3735;50.136;11.062;2022-09-09T04:34:12;97739.00;;;13.00
7389;BMP180;3735;50.136;11.062;2022-09-09T04:36:38;97742.00;;;13.00
7389;BMP180;3735;50.136;11.062;2022-09-09T04:39:06;97748.00;;;13.10
7389;BMP180;3735;50.136;11.062;2022-09-09T04:41:31;97754.00;;;13.00
7389;BMP180;3735;50.136;11.062;2022-09-09T04:43:58;97753.00;;;13.10
7389;BMP180;3735;50.136;11.062;2022-09-09T04:46:25;97748.00;;;13.10
7389;BMP180;3735;50.136;11.062;2022-09-09T04:48:51;97750.00;;;13.10
7389;BMP180;3735;50.136;11.062;2022-09-09T04:51:19;97752.00;;;13.10
7389;BMP180;3735;50.136;11.062;2022-09-09T04:53:45;97739.00;;;13.20
7389;BMP180;3735;50.136;11.062;2022-09-09T04:56:15;97753.00;;;13.20
7389;BMP180;3735;50.136;11.062;2022-09-09T04:58:42;97759.00;;;13.20
7389;BMP180;3735;50.136;11.062;2022-09-09T05:01:17;97755.00;;;13.20
7389;BMP180;3735;50.136;11.062;2022-09-09T05:03:44;97750.00;;;13.30
7389;BMP180;3735;50.136;11.062;2022-09-09T05:06:19;97755.00;;;13.40
7389;BMP180;3735;50.136;11.062;2022-09-09T05:08:45;97749.00;;;13.40
7389;BMP180;3735;50.136;11.062;2022-09-09T05:11:20;97744.00;;;13.40
7389;BMP180;3735;50.136;11.062;2022-09-09T05:13:49;97755.00;;;13.40
7389;BMP180;3735;50.136;11.062;2022-09-09T05:16:16;97766.00;;;13.50
7389;BMP180;3735;50.136;11.062;2022-09-09T05:18:43;97762.00;;;13.50
7389;BMP180;3735;50.136;11.062;2022-09-09T05:21:14;97769.00;;;13.60
7389;BMP180;3735;50.136;11.062;2022-09-09T05:23:40;97776.00;;;13.70
7389;BMP180;3735;50.136;11.062;2022-09-09T05:26:11;97778.00;;;13.80
7389;BMP180;3735;50.136;11.062;2022-09-09T05:28:37;97783.00;;;13.80
7389;BMP180;3735;50.136;11.062;2022-09-09T05:31:06;97783.00;;;13.90
7389;BMP180;3735;50.136;11.062;2022-09-09T05:33:37;97788.00;;;14.00
7389;BMP180;3735;50.136;11.062;2022-09-09T05:36:09;97781.00;;;14.20
7389;BMP180;3735;50.136;11.062;2022-09-09T05:38:36;97787.00;;;14.20
7389;BMP180;3735;50.136;11.062;2022-09-09T05:41:03;97780.00;;;14.30
7389;BMP180;3735;50.136;11.062;2022-09-09T05:43:29;97771.00;;;14.40
7389;BMP180;3735;50.136;11.062;2022-09-09T05:48:42;97778.00;;;14.30
7389;BMP180;3735;50.136;11.062;2022-09-09T05:51:12;97778.00;;;14.30
7389;BMP180;3735;50.136;11.062;2022-09-09T05:53:38;97772.00;;;14.40
7389;BMP180;3735;50.136;11.062;2022-09-09T05:56:10;97773.00;;;14.40
7389;BMP180;3735;50.136;11.062;2022-09-09T05:58:38;97769.00;;;14.50
7389;BMP180;3735;50.136;11.062;2022-09-09T06:01:13;97769.00;;;14.50
7389;BMP180;3735;50.136;11.062;2022-09-09T06:03:41;97771.00;;;14.50
7389;BMP180;3735;50.136;11.062;2022-09-09T06:06:11;97775.00;;;14.60
7389;BMP180;3735;50.136;11.062;2022-09-09T06:08:40;97775.00;;;14.70
7389;BMP180;3735;50.136;11.062;2022-09-09T06:11:22;97777.00;;;14.80
7389;BMP180;3735;50.136;11.062;2022-09-09T06:13:49;97777.00;;;14.80
7389;BMP180;3735;50.136;11.062;2022-09-09T06:16:21;97777.00;;;14.90
7389;BMP180;3735;50.136;11.062;2022-09-09T06:18:49;97775.00;;;15.00
7389;BMP180;3735;50.136;11.062;2022-09-09T06:21:20;97782.00;;;15.00
7389;BMP180;3735;50.136;11.062;2022-09-09T06:23:46;97781.00;;;15.00
7389;BMP180;3735;50.136;11.062;2022-09-09T06:26:31;97787.00;;;15.10
7389;BMP180;3735;50.136;11.062;2022-09-09T06:28:59;97780.00;;;15.30
7389;BMP180;3735;50.136;11.062;2022-09-09T06:31:28;97781.00;;;15.60
7389;BMP180;3735;50.136;11.062;2022-09-09T06:33:57;97793.00;;;15.90
7389;BMP180;3735;50.136;11.062;2022-09-09T06:36:31;97800.00;;;16.00
7389;BMP180;3735;50.136;11.062;2022-09-09T06:38:57;97802.00;;;16.10
7389;BMP180;3735;50.136;11.062;2022-09-09T06:41:26;97795.00;;;16.20
7389;BMP180;3735;50.136;11.062;2022-09-09T06:43:52;97792.00;;;16.30
7389;BMP180;3735;50.136;11.062;2022-09-09T06:46:23;97791.00;;;16.30
7389;BMP180;3735;50.136;11.062;2022-09-09T06:48:49;97794.00;;;16.20
7389;BMP180;3735;50.136;11.062;2022-09-09T06:51:19;97802.00;;;16.10
7389;BMP180;3735;50.136;11.062;2022-09-09T06:53:49;97799.00;;;16.30
7389;BMP180;3735;50.136;11.062;2022-09-09T06:58:52;97810.00;;;16.80
7389;BMP180;3735;50.136;11.062;2022-09-09T07:01:22;97812.00;;;16.90
7389;BMP180;3735;50.136;11.062;2022-09-09T07:03:52;97812.00;;;17.30
7389;BMP180;3735;50.136;11.062;2022-09-09T07:06:22;97808.00;;;18.20
7389;BMP180;3735;50.136;11.062;2022-09-09T07:08:54;97805.00;;;19.50
7389;BMP180;3735;50.136;11.062;2022-09-09T07:11:22;97805.00;;;19.80
7389;BMP180;3735;50.136;11.062;2022-09-09T07:13:48;97808.00;;;19.80
7389;BMP180;3735;50.136;11.062;2022-09-09T07:16:18;97810.00;;;19.60
7389;BMP180;3735;50.136;11.062;2022-09-09T07:18:44;97808.00;;;19.40
7389;BMP180;3735;50.136;11.062;2022-09-09T07:21:12;97807.00;;;19.40
7389;BMP180;3735;50.136;11.062;2022-09-09T07:23:39;97804.00;;;19.40
7389;BMP180;3735;50.136;11.062;2022-09-09T07:26:17;97806.00;;;19.60
7389;BMP180;3735;50.136;11.062;2022-09-09T07:28:45;97808.00;;;19.80
7389;BMP180;3735;50.136;11.062;2022-09-09T07:31:23;97807.00;;;20.20
7389;BMP180;3735;50.136;11.062;2022-09-09T07:33:51;97812.00;;;20.10
7389;BMP180;3735;50.136;11.062;2022-09-09T07:36:20;97814.00;;;20.20
7389;BMP180;3735;50.136;11.062;2022-09-09T07:38:56;97815.00;;;20.00
7389;BMP180;3735;50.136;11.062;2022-09-09T07:41:29;97812.00;;;19.90
7389;BMP180;3735;50.136;11.062;2022-09-09T07:43:56;97830.00;;;19.90
7389;BMP180;3735;50.136;11.062;2022-09-09T07:46:25;97829.00;;;19.40
7389;BMP180;3735;50.136;11.062;2022-09-09T07:48:54;97819.00;;;19.20
7389;BMP180;3735;50.136;11.062;2022-09-09T07:51:40;97833.00;;;18.90
7389;BMP180;3735;50.136;11.062;2022-09-09T07:54:10;97830.00;;;19.00
7389;BMP180;3735;50.136;11.062;2022-09-09T07:56:38;97836.00;;;18.70
7389;BMP180;3735;50.136;11.062;2022-09-09T07:59:05;97832.00;;;18.60
7389;BMP180;3735;50.136;11.062;2022-09-09T08:01:34;97838.00;;;18.60
7389;BMP180;3735;50.136;11.062;2022-09-09T08:04:06;97841.00;;;18.90
7389;BMP180;3735;50.136;11.062;2022-09-09T08:06:37;97835.00;;;19.40
7389;BMP180;3735;50.136;11.062;2022-09-09T08:09:04;97840.00;;;20.00
7389;BMP180;3735;50.136;11.062;2022-09-09T08:11:30;97837.00;;;20.70
7389;BMP180;3735;50.136;11.062;2022-09-09T08:13:57;97837.00;;;20.90
7389;BMP180;3735;50.136;11.062;2022-09-09T08:16:27;97844.00;;;21.00
7389;BMP180;3735;50.136;11.062;2022-09-09T08:18:54;97839.00;;;21.40
7389;BMP180;3735;50.136;11.062;2022-09-09T08:21:26;97832.00;;;22.00
7389;BMP180;3735;50.136;11.062;2022-09-09T08:23:55;97832.00;;;23.00
7389;BMP180;3735;50.136;11.062;2022-09-09T08:26:31;97832.00;;;23.90
7389;BMP180;3735;50.136;11.062;2022-09-09T08:28:59;97830.00;;;22.90
7389;BMP180;3735;50.136;11.062;2022-09-09T08:31:26;97832.00;;;22.80
7389;BMP180;3735;50.136;11.062;2022-09-09T08:33:54;97840.00;;;22.90
7389;BMP180;3735;50.136;11.062;2022-09-09T08:36:26;97836.00;;;23.80
7389;BMP180;3735;50.136;11.062;2022-09-09T08:38:55;97835.00;;;23.50
7389;BMP180;3735;50.136;11.062;2022-09-09T08:50:29;97851.00;;;22.70
7389;BMP180;3735;50.136;11.062;2022-09-09T08:53:05;97856.00;;;23.10
7389;BMP180;3735;50.136;11.062;2022-09-09T08:55:47;97860.00;;;22.90
7389;BMP180;3735;50.136;11.062;2022-09-09T08:58:33;97863.00;;;22.00
7389;BMP180;3735;50.136;11.062;2022-09-09T09:04:50;97877.00;;;21.00
7389;BMP180;3735;50.136;11.062;2022-09-09T09:07:59;97874.00;;;21.00
7389;BMP180;3735;50.136;11.062;2022-09-09T09:10:53;97870.00;;;20.50
7389;BMP180;3735;50.136;11.062;2022-09-09T09:13:35;97869.00;;;20.20
7389;BMP180;3735;50.136;11.062;2022-09-09T09:16:25;97872.00;;;20.30
7389;BMP180;3735;50.136;11.062;2022-09-09T09:18:53;97878.00;;;19.90
7389;BMP180;3735;50.136;11.062;2022-09-09T09:21:44;97883.00;;;19.90
7389;BMP180;3735;50.136;11.062;2022-09-09T09:27:00;97882.00;;;20.10
7389;BMP180;3735;50.136;11.062;2022-09-09T09:29:33;97876.00;;;20.60
7389;BMP180;3735;50.136;11.062;2022-09-09T09:32:03;97880.00;;;20.50
7389;BMP180;3735;50.136;11.062;2022-09-09T09:34:29;97872.00;;;21.00
7389;BMP180;3735;50.136;11.062;2022-09-09T09:36:57;97870.00;;;21.10
7389;BMP180;3735;50.136;11.062;2022-09-09T09:39:32;97872.00;;;21.30
7389;BMP180;3735;50.136;11.062;2022-09-09T09:42:16;97877.00;;;21.10
7389;BMP180;3735;50.136;11.062;2022-09-09T09:44:43;97865.00;;;21.10
7389;BMP180;3735;50.136;11.062;2022-09-09T09:47:29;97875.00;;;21.10
7389;BMP180;3735;50.136;11.062;2022-09-09T09:50:00;97866.00;;;21.20
7389;BMP180;3735;50.136;11.062;2022-09-09T09:52:30;97847.00;;;21.80
7389;BMP180;3735;50.136;11.062;2022-09-09T09:54:58;97850.00;;;22.40
7389;BMP180;3735;50.136;11.062;2022-09-09T09:57:29;97851.00;;;23.10
7389;BMP180;3735;50.136;11.062;2022-09-09T10:00:18;97840.00;;;25.20
7389;BMP180;3735;50.136;11.062;2022-09-09T10:02:46;97838.00;;;27.10
7389;BMP180;3735;50.136;11.062;2022-09-09T10:05:24;97829.00;;;28.90
7389;BMP180;3735;50.136;11.062;2022-09-09T10:08:13;97836.00;;;30.20
7389;BMP180;3735;50.136;11.062;2022-09-09T10:11:25;97840.00;;;29.20
7389;BMP180;3735;50.136;11.062;2022-09-09T10:14:30;97837.00;;;29.40
7389;BMP180;3735;50.136;11.062;2022-09-09T10:22:50;97820.00;;;31.80
7389;BMP180;3735;50.136;11.062;2022-09-09T10:31:22;97829.00;;;28.30
7389;BMP180;3735;50.136;11.062;2022-09-09T10:36:46;97835.00;;;26.30
7389;BMP180;3735;50.136;11.062;2022-09-09T10:39:37;97838.00;;;24.90
7389;BMP180;3735;50.136;11.062;2022-09-09T10:42:31;97837.00;;;23.90
7389;BMP180;3735;50.136;11.062;2022-09-09T10:45:20;97840.00;;;23.50
7389;BMP180;3735;50.136;11.062;2022-09-09T10:49:27;97846.00;;;23.70
7389;BMP180;3735;50.136;11.062;2022-09-09T10:51:32;97837.00;;;24.90
7389;BMP180;3735;50.136;11.062;2022-09-09T10:57:03;97824.00;;;29.20
7389;BMP180;3735;50.136;11.062;2022-09-09T10:59:37;97808.00;;;29.00
7389;BMP180;3735;50.136;11.062;2022-09-09T11:02:19;97812.00;;;30.00
7389;BMP180;3735;50.136;11.062;2022-09-09T11:07:48;97803.00;;;31.50
7389;BMP180;3735;50.136;11.062;2022-09-09T11:10:37;97800.00;;;32.10
7389;BMP180;3735;50.136;11.062;2022-09-09T11:13:17;97809.00;;;30.40
7389;BMP180;3735;50.136;11.062;2022-09-09T11:15:50;97801.00;;;30.40
7389;BMP180;3735;50.136;11.062;2022-09-09T11:18:21;97796.00;;;30.80
7389;BMP180;3735;50.136;11.062;2022-09-09T11:20:58;97803.00;;;30.80
7389;BMP180;3735;50.136;11.062;2022-09-09T11:23:42;97794.00;;;32.20
7389;BMP180;3735;50.136;11.062;2022-09-09T11:26:24;97805.00;;;31.30
7389;BMP180;3735;50.136;11.062;2022-09-09T11:32:00;97800.00;;;30.10
7389;BMP180;3735;50.136;11.062;2022-09-09T11:38:01;97793.00;;;29.90
7389;BMP180;3735;50.136;11.062;2022-09-09T11:40:30;97792.00;;;30.90
7389;BMP180;3735;50.136;11.062;2022-09-09T11:43:10;97784.00;;;32.30
7389;BMP180;3735;50.136;11.062;2022-09-09T11:45:41;97789.00;;;31.50
7389;BMP180;3735;50.136;11.062;2022-09-09T11:48:28;97783.00;;;30.50
7389;BMP180;3735;50.136;11.062;2022-09-09T11:51:13;97781.00;;;29.90
7389;BMP180;3735;50.136;11.062;2022-09-09T11:54:32;97786.00;;;28.70
7389;BMP180;3735;50.136;11.062;2022-09-09T11:56:50;97788.00;;;30.20
7389;BMP180;3735;50.136;11.062;2022-09-09T11:59:26;97807.00;;;29.60
7389;BMP180;3735;50.136;11.062;2022-09-09T12:02:22;97801.00;;;27.80
7389;BMP180;3735;50.136;11.062;2022-09-09T12:05:08;97795.00;;;27.90
7389;BMP180;3735;50.136;11.062;2022-09-09T12:07:38;97794.00;;;27.50
7389;BMP180;3735;50.136;11.062;2022-09-09T12:12:36;97798.00;;;25.60
7389;BMP180;3735;50.136;11.062;2022-09-09T12:17:44;97799.00;;;24.20
7389;BMP180;3735;50.136;11.062;2022-09-09T12:20:27;97796.00;;;23.90
7389;BMP180;3735;50.136;11.062;2022-09-09T12:29:11;97794.00;;;23.60
7389;BMP180;3735;50.136;11.062;2022-09-09T12:32:25;97801.00;;;23.20
7389;BMP180;3735;50.136;11.062;2022-09-09T12:34:46;97808.00;;;23.30
7389;BMP180;3735;50.136;11.062;2022-09-09T12:40:29;97800.00;;;23.60
7389;BMP180;3735;50.136;11.062;2022-09-09T12:42:57;97796.00;;;23.60
7389;BMP180;3735;50.136;11.062;2022-09-09T12:45:28;97815.00;;;23.30
7389;BMP180;3735;50.136;11.062;2022-09-09T12:48:09;97815.00;;;23.00
7389;BMP180;3735;50.136;11.062;2022-09-09T12:50:49;97824.00;;;24.60
7389;BMP180;3735;50.136;11.062;2022-09-09T12:53:32;97826.00;;;24.40
7389;BMP180;3735;50.136;11.062;2022-09-09T12:56:08;97833.00;;;22.80
7389;BMP180;3735;50.136;11.062;2022-09-09T12:58:48;97835.00;;;22.50
7389;BMP180;3735;50.136;11.062;2022-09-09T13:01:31;97837.00;;;22.50
7389;BMP180;3735;50.136;11.062;2022-09-09T13:03:59;97826.00;;;23.10
7389;BMP180;3735;50.136;11.062;2022-09-09T13:06:31;97825.00;;;24.90
7389;BMP180;3735;50.136;11.062;2022-09-09T13:09:00;97821.00;;;26.40
7389;BMP180;3735;50.136;11.062;2022-09-09T13:11:35;97819.00;;;26.80
7389;BMP180;3735;50.136;11.062;2022-09-09T13:14:02;97810.00;;;27.50
7389;BMP180;3735;50.136;11.062;2022-09-09T13:16:34;97807.00;;;27.80
7389;BMP180;3735;50.136;11.062;2022-09-09T13:19:08;97802.00;;;27.90
7389;BMP180;3735;50.136;11.062;2022-09-09T13:21:36;97796.00;;;29.10
7389;BMP180;3735;50.136;11.062;2022-09-09T13:24:06;97804.00;;;28.80
7389;BMP180;3735;50.136;11.062;2022-09-09T13:26:34;97792.00;;;28.70
7389;BMP180;3735;50.136;11.062;2022-09-09T13:29:19;97800.00;;;27.80
7389;BMP180;3735;50.136;11.062;2022-09-09T13:31:45;97792.00;;;27.10
7389;BMP180;3735;50.136;11.062;2022-09-09T13:34:28;97797.00;;;25.80
7389;BMP180;3735;50.136;11.062;2022-09-09T13:37:04;97795.00;;;26.00
7389;BMP180;3735;50.136;11.062;2022-09-09T13:39:34;97788.00;;;26.60
7389;BMP180;3735;50.136;11.062;2022-09-09T13:42:02;97779.00;;;28.20
7389;BMP180;3735;50.136;11.062;2022-09-09T13:44:34;97771.00;;;28.70
7389;BMP180;3735;50.136;11.062;2022-09-09T13:47:22;97779.00;;;28.50
7389;BMP180;3735;50.136;11.062;2022-09-09T13:49:52;97776.00;;;27.30
7389;BMP180;3735;50.136;11.062;2022-09-09T13:52:18;97777.00;;;27.50
7389;BMP180;3735;50.136;11.062;2022-09-09T13:54:49;97786.00;;;27.20
7389;BMP180;3735;50.136;11.062;2022-09-09T13:57:22;97773.00;;;26.90
7389;BMP180;3735;50.136;11.062;2022-09-09T13:59:52;97767.00;;;27.80
7389;BMP180;3735;50.136;11.062;2022-09-09T14:02:20;97770.00;;;26.90
7389;BMP180;3735;50.136;11.062;2022-09-09T14:04:49;97767.00;;;26.80
7389;BMP180;3735;50.136;11.062;2022-09-09T14:07:18;97765.00;;;25.40
7389;BMP180;3735;50.136;11.062;2022-09-09T14:09:44;97765.00;;;25.00
7389;BMP180;3735;50.136;11.062;2022-09-09T14:12:14;97772.00;;;24.40
7389;BMP180;3735;50.136;11.062;2022-09-09T14:14:41;97766.00;;;24.80
7389;BMP180;3735;50.136;11.062;2022-09-09T14:17:08;97750.00;;;26.10
7389;BMP180;3735;50.136;11.062;2022-09-09T14:19:34;97761.00;;;25.80
7389;BMP180;3735;50.136;11.062;2022-09-09T14:22:00;97751.00;;;24.40
7389;BMP180;3735;50.136;11.062;2022-09-09T14:24:27;97749.00;;;24.80
7389;BMP180;3735;50.136;11.062;2022-09-09T14:26:54;97748.00;;;25.50
7389;BMP180;3735;50.136;11.062;2022-09-09T14:29:20;97739.00;;;26.10
7389;BMP180;3735;50.136;11.062;2022-09-09T14:31:46;97735.00;;;26.50
7389;BMP180;3735;50.136;11.062;2022-09-09T14:34:12;97732.00;;;26.80
7389;BMP180;3735;50.136;11.062;2022-09-09T14:36:38;97732.00;;;26.40
7389;BMP180;3735;50.136;11.062;2022-09-09T14:39:04;97733.00;;;26.30
7389;BMP180;3735;50.136;11.062;2022-09-09T14:41:31;97729.00;;;26.30
7389;BMP180;3735;50.136;11.062;2022-09-09T14:43:57;97728.00;;;25.80
7389;BMP180;3735;50.136;11.062;2022-09-09T14:46:22;97734.00;;;25.50
7389;BMP180;3735;50.136;11.062;2022-09-09T14:48:49;97731.00;;;26.60
7389;BMP180;3735;50.136;11.062;2022-09-09T14:51:22;97719.00;;;27.10
7389;BMP180;3735;50.136;11.062;2022-09-09T14:53:50;97730.00;;;27.40
7389;BMP180;3735;50.136;11.062;2022-09-09T14:56:19;97732.00;;;27.10
7389;BMP180;3735;50.136;11.062;2022-09-09T14:58:47;97734.00;;;27.00
7389;BMP180;3735;50.136;11.062;2022-09-09T15:01:16;97743.00;;;27.20
7389;BMP180;3735;50.136;11.062;2022-09-09T15:03:49;97738.00;;;26.50
7389;BMP180;3735;50.136;11.062;2022-09-09T15:06:15;97746.00;;;25.50
7389;BMP180;3735;50.136;11.062;2022-09-09T15:08:45;97744.00;;;24.40
7389;BMP180;3735;50.136;11.062;2022-09-09T15:11:13;97740.00;;;23.90
7389;BMP180;3735;50.136;11.062;2022-09-09T15:13:42;97740.00;;;23.30
7389;BMP180;3735;50.136;11.062;2022-09-09T15:16:13;97739.00;;;23.10
7389;BMP180;3735;50.136;11.062;2022-09-09T15:18:39;97740.00;;;22.90
7389;BMP180;3735;50.136;11.062;2022-09-09T15:21:09;97742.00;;;22.60
7389;BMP180;3735;50.136;11.062;2022-09-09T15:23:36;97738.00;;;22.50
7389;BMP180;3735;50.136;11.062;2022-09-09T15:26:02;97737.00;;;22.60
7389;BMP180;3735;50.136;11.062;2022-09-09T15:28:37;97742.00;;;22.60
7389;BMP180;3735;50.136;11.062;2022-09-09T15:33:38;97753.00;;;22.30
7389;BMP180;3735;50.136;11.062;2022-09-09T15:36:26;97750.00;;;22.40
7389;BMP180;3735;50.136;11.062;2022-09-09T15:38:54;97754.00;;;22.40
7389;BMP180;3735;50.136;11.062;2022-09-09T15:41:22;97761.00;;;22.30
7389;BMP180;3735;50.136;11.062;2022-09-09T15:43:51;97757.00;;;22.00
7389;BMP180;3735;50.136;11.062;2022-09-09T15:48:44;97751.00;;;22.00
7389;BMP180;3735;50.136;11.062;2022-09-09T15:51:10;97742.00;;;21.90
7389;BMP180;3735;50.136;11.062;2022-09-09T15:53:37;97756.00;;;21.90
7389;BMP180;3735;50.136;11.062;2022-09-09T15:56:08;97750.00;;;22.00
7389;BMP180;3735;50.136;11.062;2022-09-09T15:58:35;97749.00;;;22.00
7389;BMP180;3735;50.136;11.062;2022-09-09T16:01:09;97740.00;;;22.10
7389;BMP180;3735;50.136;11.062;2022-09-09T16:03:38;97742.00;;;22.10
7389;BMP180;3735;50.136;11.062;2022-09-09T16:06:05;97733.00;;;22.10
7389;BMP180;3735;50.136;11.062;2022-09-09T16:08:37;97738.00;;;22.00
7389;BMP180;3735;50.136;11.062;2022-09-09T16:11:35;97730.00;;;21.80
7389;BMP180;3735;50.136;11.062;2022-09-09T16:14:01;97734.00;;;21.50
7389;BMP180;3735;50.136;11.062;2022-09-09T16:16:29;97738.00;;;21.30
7389;BMP180;3735;50.136;11.062;2022-09-09T16:18:59;97745.00;;;21.10
7389;BMP180;3735;50.136;11.062;2022-09-09T16:21:31;97742.00;;;21.00
7389;BMP180;3735;50.136;11.062;2022-09-09T16:24:00;97749.00;;;20.90
7389;BMP180;3735;50.136;11.062;2022-09-09T16:26:28;97753.00;;;20.70
7389;BMP180;3735;50.136;11.062;2022-09-09T16:28:54;97747.00;;;20.60
7389;BMP180;3735;50.136;11.062;2022-09-09T16:31:22;97759.00;;;20.50
7389;BMP180;3735;50.136;11.062;2022-09-09T16:33:49;97766.00;;;20.40
7389;BMP180;3735;50.136;11.062;2022-09-09T16:36:30;97771.00;;;20.20
7389;BMP180;3735;50.136;11.062;2022-09-09T16:39:00;97769.00;;;20.20
7389;BMP180;3735;50.136;11.062;2022-09-09T16:41:28;97776.00;;;20.10
7389;BMP180;3735;50.136;11.062;2022-09-09T16:43:55;97786.00;;;20.00